KFCS

Details ICAO KFCS (FCS)
Name BUTTS AAF
Region United States
Timezone America/Denver (UTC-7.0)
Plans Departing 2
Arriving 4
Stats Elevation 5,838 ft / 1,779 m (AMSL)
Location 38.678395° -104.756579°
Runways 1
Magnetic Variation 8.005° E
Sunrise 2017-12-15 14:11:24 UTC / 2017-12-15 07:11:24 Local
Sunset 2017-12-15 23:40:01 UTC / 2017-12-15 16:40:01 Local
Advertisement - Login to hide

Runways

ID Width Length Bearing (true) Bearing (mag) Surface Threshold Offset Overrun Length
13 75 ft / 23 m 4,573 ft / 1,394 m 137.30° 129.29° Asphalt 0 ft / 0 m 500 ft / 152 m
31 75 ft / 23 m 4,573 ft / 1,394 m 317.31° 309.30° Asphalt 0 ft / 0 m 0 ft / 0 m

Map

Weather


0- 5 10 15 20 25 30 35+ Temperature / ° C

Clouds and Precipitation
Forecast for 2017-12-15 12:00 UTC. Updated 2 hours ago

Ground ~20,000 ft ~40,000 ft Winds

METAR

KFCS 150758Z AUTO 34009KT 10SM CLR M07/M08 A3018 RMK AO2 SLP285 T10671082 $

TAF

TAF AMD KFCS 150643Z 1506/1611 VRB06KT 9999 FEW010 QNH2976INS BECMG 1516/1517 29009KT 9999 SKC QNH2975INS BECMG 1602/1603 33012KT 9999 SKC QNH2982INS TX14/1522Z TNM07/1512Z

Frequencies

Tower 125.50 MHz TWR
Approach 124.00 MHz SPRINGS APP/DEP
Warning: Do not use this data for real-world aviation or navigation. No guarantee of current accuracy is given.